UAKD

Zhezkazgan Airport

Airport
ICAO code
UAKD
IATA Code
DZN
Summary
ICAO Region
APAC
ICAO Territory
Location

Zhezkazgan,

Serving
Zhezkazgan
Elevation
1250 ft
Coordinates
47° 42' 30" N , 67° 43' 60" E
Metar
UAKD 270900Z 26011MPS 9999 BKN046 25/M00 Q1013 NOSIG RMK QFE727/0969

Description

Zhezkazgan Airport is the international airport in Zhezkazgan, Kazakhstan.

Runways

Designator Length Width Surface Rops
4/22 2600 42 CON No/No

Airport map

Aerial View

SKYbrary Partners:

Safety knowledge contributed by: